sensor_id;sensor_type;location;lat;lon;timestamp;noise_LAeq;noise_LA_min;noise_LA_max;noise_LA01;noise_LA95
47109;Laerm;32856;51.422;6.794;2023-07-16T00:00:34;54.39;42.35;72.00;;
47109;Laerm;32856;51.422;6.794;2023-07-16T00:03:02;50.32;41.82;67.35;;
47109;Laerm;32856;51.422;6.794;2023-07-16T00:05:29;50.02;42.22;58.44;;
47109;Laerm;32856;51.422;6.794;2023-07-16T00:07:56;53.62;41.68;72.50;;
47109;Laerm;32856;51.422;6.794;2023-07-16T00:10:25;45.29;41.89;49.89;;
47109;Laerm;32856;51.422;6.794;2023-07-16T00:12:52;53.13;40.89;72.31;;
47109;Laerm;32856;51.422;6.794;2023-07-16T00:15:20;54.40;41.75;71.90;;
47109;Laerm;32856;51.422;6.794;2023-07-16T00:17:47;46.14;41.89;49.49;;
47109;Laerm;32856;51.422;6.794;2023-07-16T00:20:14;53.92;41.53;72.18;;
47109;Laerm;32856;51.422;6.794;2023-07-16T00:22:42;52.15;41.53;67.98;;
47109;Laerm;32856;51.422;6.794;2023-07-16T00:25:09;52.02;41.75;69.03;;
47109;Laerm;32856;51.422;6.794;2023-07-16T00:27:38;55.19;41.61;69.92;;
47109;Laerm;32856;51.422;6.794;2023-07-16T00:30:06;47.25;41.30;58.99;;
47109;Laerm;32856;51.422;6.794;2023-07-16T00:32:33;50.64;42.71;67.90;;
47109;Laerm;32856;51.422;6.794;2023-07-16T00:35:01;53.90;42.13;72.95;;
47109;Laerm;32856;51.422;6.794;2023-07-16T00:37:28;54.28;41.53;70.67;;
47109;Laerm;32856;51.422;6.794;2023-07-16T00:39:56;61.10;42.98;78.45;;
47109;Laerm;32856;51.422;6.794;2023-07-16T00:42:23;52.78;40.53;69.36;;
47109;Laerm;32856;51.422;6.794;2023-07-16T00:44:52;51.89;42.22;70.07;;
47109;Laerm;32856;51.422;6.794;2023-07-16T00:47:19;45.43;41.75;48.18;;
47109;Laerm;32856;51.422;6.794;2023-07-16T00:49:47;54.31;42.29;73.51;;
47109;Laerm;32856;51.422;6.794;2023-07-16T00:52:16;58.88;42.22;74.86;;
47109;Laerm;32856;51.422;6.794;2023-07-16T00:54:45;52.63;42.65;69.81;;
47109;Laerm;32856;51.422;6.794;2023-07-16T00:57:12;51.92;42.88;68.59;;
47109;Laerm;32856;51.422;6.794;2023-07-16T00:59:40;51.27;43.90;67.36;;
47109;Laerm;32856;51.422;6.794;2023-07-16T01:05:38;56.37;43.29;72.49;;
47109;Laerm;32856;51.422;6.794;2023-07-16T01:08:08;46.69;43.29;50.19;;
47109;Laerm;32856;51.422;6.794;2023-07-16T01:10:36;45.55;42.29;49.62;;
47109;Laerm;32856;51.422;6.794;2023-07-16T01:13:04;46.56;43.04;51.18;;
47109;Laerm;32856;51.422;6.794;2023-07-16T01:15:32;57.79;44.07;71.60;;
47109;Laerm;32856;51.422;6.794;2023-07-16T01:17:59;52.95;44.07;66.56;;
47109;Laerm;32856;51.422;6.794;2023-07-16T01:20:27;47.43;44.45;60.21;;
47109;Laerm;32856;51.422;6.794;2023-07-16T01:25:45;57.16;43.54;71.24;;
47109;Laerm;32856;51.422;6.794;2023-07-16T01:28:23;47.49;43.44;51.32;;
47109;Laerm;32856;51.422;6.794;2023-07-16T01:30:55;54.61;43.58;72.17;;
47109;Laerm;32856;51.422;6.794;2023-07-16T01:33:23;54.76;44.07;69.78;;
47109;Laerm;32856;51.422;6.794;2023-07-16T01:35:51;55.90;43.14;72.50;;
47109;Laerm;32856;51.422;6.794;2023-07-16T01:38:19;48.73;42.41;64.31;;
47109;Laerm;32856;51.422;6.794;2023-07-16T01:40:47;50.53;42.59;67.67;;
47109;Laerm;32856;51.422;6.794;2023-07-16T01:43:14;52.50;42.76;70.35;;
47109;Laerm;32856;51.422;6.794;2023-07-16T01:45:41;51.94;42.41;70.80;;
47109;Laerm;32856;51.422;6.794;2023-07-16T01:48:14;54.67;44.69;72.20;;
47109;Laerm;32856;51.422;6.794;2023-07-16T01:50:44;54.06;43.44;72.29;;
47109;Laerm;32856;51.422;6.794;2023-07-16T01:53:11;46.59;42.53;50.56;;
47109;Laerm;32856;51.422;6.794;2023-07-16T01:55:39;47.40;44.52;53.27;;
47109;Laerm;32856;51.422;6.794;2023-07-16T01:58:06;47.58;44.58;51.59;;
47109;Laerm;32856;51.422;6.794;2023-07-16T02:00:34;47.46;44.11;50.86;;
47109;Laerm;32856;51.422;6.794;2023-07-16T02:03:01;54.23;44.27;69.88;;
47109;Laerm;32856;51.422;6.794;2023-07-16T02:05:30;49.23;44.97;71.52;;
47109;Laerm;32856;51.422;6.794;2023-07-16T02:07:57;46.02;42.82;49.63;;
47109;Laerm;32856;51.422;6.794;2023-07-16T02:10:25;48.96;43.72;56.12;;
47109;Laerm;32856;51.422;6.794;2023-07-16T02:12:52;46.89;43.34;50.62;;
47109;Laerm;32856;51.422;6.794;2023-07-16T02:15:20;57.48;42.59;73.53;;
47109;Laerm;32856;51.422;6.794;2023-07-16T02:17:47;47.43;44.23;51.02;;
47109;Laerm;32856;51.422;6.794;2023-07-16T02:20:14;55.48;45.04;74.18;;
47109;Laerm;32856;51.422;6.794;2023-07-16T02:22:43;54.53;44.03;68.22;;
47109;Laerm;32856;51.422;6.794;2023-07-16T02:25:11;47.84;43.86;51.29;;
47109;Laerm;32856;51.422;6.794;2023-07-16T02:27:38;47.89;44.27;52.01;;
47109;Laerm;32856;51.422;6.794;2023-07-16T02:30:06;53.73;43.24;72.44;;
47109;Laerm;32856;51.422;6.794;2023-07-16T02:32:33;48.27;43.72;52.68;;
47109;Laerm;32856;51.422;6.794;2023-07-16T02:35:01;51.17;43.54;67.21;;
47109;Laerm;32856;51.422;6.794;2023-07-16T02:37:29;47.41;44.31;51.64;;
47109;Laerm;32856;51.422;6.794;2023-07-16T02:39:58;47.76;44.23;52.67;;
47109;Laerm;32856;51.422;6.794;2023-07-16T02:42:25;49.98;45.11;67.87;;
47109;Laerm;32856;51.422;6.794;2023-07-16T02:44:53;48.21;42.82;59.93;;
47109;Laerm;32856;51.422;6.794;2023-07-16T02:47:20;48.28;43.14;54.33;;
47109;Laerm;32856;51.422;6.794;2023-07-16T02:49:50;52.12;44.39;70.75;;
47109;Laerm;32856;51.422;6.794;2023-07-16T02:52:17;53.58;45.97;72.01;;
47109;Laerm;32856;51.422;6.794;2023-07-16T02:54:45;48.29;44.43;53.12;;
47109;Laerm;32856;51.422;6.794;2023-07-16T02:57:13;52.50;44.80;69.18;;
47109;Laerm;32856;51.422;6.794;2023-07-16T02:59:41;54.24;45.39;72.03;;
47109;Laerm;32856;51.422;6.794;2023-07-16T03:02:08;50.75;46.43;56.92;;
47109;Laerm;32856;51.422;6.794;2023-07-16T03:04:35;51.59;45.11;56.96;;
47109;Laerm;32856;51.422;6.794;2023-07-16T03:07:03;56.72;44.76;74.95;;
47109;Laerm;32856;51.422;6.794;2023-07-16T03:09:30;49.15;45.27;52.65;;
47109;Laerm;32856;51.422;6.794;2023-07-16T03:11:58;58.50;45.94;74.10;;
47109;Laerm;32856;51.422;6.794;2023-07-16T03:14:27;53.24;44.11;60.98;;
47109;Laerm;32856;51.422;6.794;2023-07-16T03:16:54;55.56;44.94;74.63;;
47109;Laerm;32856;51.422;6.794;2023-07-16T03:19:21;53.49;45.69;71.37;;
47109;Laerm;32856;51.422;6.794;2023-07-16T03:21:49;53.11;45.48;71.80;;
47109;Laerm;32856;51.422;6.794;2023-07-16T03:24:16;53.43;44.73;71.50;;
47109;Laerm;32856;51.422;6.794;2023-07-16T03:26:44;53.29;46.91;59.06;;
47109;Laerm;32856;51.422;6.794;2023-07-16T03:29:11;56.05;46.89;74.66;;
47109;Laerm;32856;51.422;6.794;2023-07-16T03:31:40;54.25;45.11;72.51;;
47109;Laerm;32856;51.422;6.794;2023-07-16T03:34:07;54.88;46.10;73.61;;
47109;Laerm;32856;51.422;6.794;2023-07-16T03:36:34;56.84;46.62;75.94;;
47109;Laerm;32856;51.422;6.794;2023-07-16T03:39:02;55.86;46.38;73.79;;
47109;Laerm;32856;51.422;6.794;2023-07-16T03:41:29;58.97;47.22;78.15;;
47109;Laerm;32856;51.422;6.794;2023-07-16T03:43:56;57.44;46.25;73.89;;
47109;Laerm;32856;51.422;6.794;2023-07-16T03:46:24;49.85;45.54;55.31;;
47109;Laerm;32856;51.422;6.794;2023-07-16T03:48:53;52.95;47.06;69.77;;
47109;Laerm;32856;51.422;6.794;2023-07-16T03:51:20;52.97;45.94;60.62;;
47109;Laerm;32856;51.422;6.794;2023-07-16T03:53:48;49.99;45.97;55.24;;
47109;Laerm;32856;51.422;6.794;2023-07-16T03:56:16;55.28;45.99;73.16;;
47109;Laerm;32856;51.422;6.794;2023-07-16T03:58:43;48.14;44.15;51.63;;
47109;Laerm;32856;51.422;6.794;2023-07-16T04:01:11;55.64;46.05;72.22;;
47109;Laerm;32856;51.422;6.794;2023-07-16T04:03:38;59.04;46.73;75.23;;
47109;Laerm;32856;51.422;6.794;2023-07-16T04:06:07;49.60;45.51;57.74;;
47109;Laerm;32856;51.422;6.794;2023-07-16T04:08:35;50.05;45.39;55.25;;
47109;Laerm;32856;51.422;6.794;2023-07-16T04:11:03;49.62;44.90;56.03;;
47109;Laerm;32856;51.422;6.794;2023-07-16T04:13:31;55.75;46.07;75.42;;
47109;Laerm;32856;51.422;6.794;2023-07-16T04:15:58;56.77;46.59;75.28;;
47109;Laerm;32856;51.422;6.794;2023-07-16T04:18:26;56.38;47.28;72.44;;
47109;Laerm;32856;51.422;6.794;2023-07-16T04:20:53;55.60;47.04;73.01;;
47109;Laerm;32856;51.422;6.794;2023-07-16T04:23:22;56.82;47.67;73.85;;
47109;Laerm;32856;51.422;6.794;2023-07-16T04:25:50;52.49;46.89;60.68;;
47109;Laerm;32856;51.422;6.794;2023-07-16T04:28:18;58.27;47.11;74.31;;
47109;Laerm;32856;51.422;6.794;2023-07-16T04:30:45;56.48;48.71;73.88;;
47109;Laerm;32856;51.422;6.794;2023-07-16T04:33:12;52.04;44.94;66.98;;
47109;Laerm;32856;51.422;6.794;2023-07-16T04:35:40;50.09;45.80;54.21;;
47109;Laerm;32856;51.422;6.794;2023-07-16T04:38:07;56.94;46.87;73.86;;
47109;Laerm;32856;51.422;6.794;2023-07-16T04:40:36;49.97;45.83;53.69;;
47109;Laerm;32856;51.422;6.794;2023-07-16T04:43:04;58.28;45.28;75.82;;
47109;Laerm;32856;51.422;6.794;2023-07-16T04:45:31;58.55;45.91;77.17;;
47109;Laerm;32856;51.422;6.794;2023-07-16T04:47:58;51.05;46.71;63.99;;
47109;Laerm;32856;51.422;6.794;2023-07-16T04:50:26;55.07;46.87;71.04;;
47109;Laerm;32856;51.422;6.794;2023-07-16T04:52:53;57.30;46.43;74.01;;
47109;Laerm;32856;51.422;6.794;2023-07-16T04:55:21;55.46;47.38;75.07;;
47109;Laerm;32856;51.422;6.794;2023-07-16T04:57:49;53.57;46.02;71.95;;
47109;Laerm;32856;51.422;6.794;2023-07-16T05:00:19;49.96;45.63;57.89;;
47109;Laerm;32856;51.422;6.794;2023-07-16T05:02:47;49.85;45.54;60.67;;
47109;Laerm;32856;51.422;6.794;2023-07-16T05:05:14;55.12;46.45;71.41;;
47109;Laerm;32856;51.422;6.794;2023-07-16T05:07:42;55.13;46.33;70.89;;
47109;Laerm;32856;51.422;6.794;2023-07-16T05:10:09;58.99;47.10;77.41;;
47109;Laerm;32856;51.422;6.794;2023-07-16T05:12:37;55.69;46.15;72.98;;
47109;Laerm;32856;51.422;6.794;2023-07-16T05:15:06;54.35;47.38;72.34;;
47109;Laerm;32856;51.422;6.794;2023-07-16T05:17:34;51.47;47.22;55.88;;
47109;Laerm;32856;51.422;6.794;2023-07-16T05:20:01;53.30;46.66;68.99;;
47109;Laerm;32856;51.422;6.794;2023-07-16T05:22:30;54.31;47.68;72.79;;
47109;Laerm;32856;51.422;6.794;2023-07-16T05:24:57;57.48;46.89;74.51;;
47109;Laerm;32856;51.422;6.794;2023-07-16T05:27:24;57.03;47.12;73.99;;
47109;Laerm;32856;51.422;6.794;2023-07-16T05:29:52;52.70;46.97;68.51;;
47109;Laerm;32856;51.422;6.794;2023-07-16T05:32:21;50.43;46.18;56.92;;
47109;Laerm;32856;51.422;6.794;2023-07-16T05:34:48;56.77;47.22;73.76;;
47109;Laerm;32856;51.422;6.794;2023-07-16T05:37:16;57.29;48.46;75.37;;
47109;Laerm;32856;51.422;6.794;2023-07-16T05:39:43;52.54;48.29;59.01;;
47109;Laerm;32856;51.422;6.794;2023-07-16T05:42:13;57.57;48.20;74.41;;
47109;Laerm;32856;51.422;6.794;2023-07-16T05:44:41;60.54;48.40;75.95;;
47109;Laerm;32856;51.422;6.794;2023-07-16T05:47:10;57.03;48.64;74.49;;
47109;Laerm;32856;51.422;6.794;2023-07-16T05:49:39;53.90;48.00;73.87;;
47109;Laerm;32856;51.422;6.794;2023-07-16T05:52:06;59.15;49.34;73.20;;
47109;Laerm;32856;51.422;6.794;2023-07-16T05:54:34;55.96;48.32;72.96;;
47109;Laerm;32856;51.422;6.794;2023-07-16T05:57:02;54.58;46.71;70.05;;
47109;Laerm;32856;51.422;6.794;2023-07-16T05:59:29;56.56;44.83;72.04;;
47109;Laerm;32856;51.422;6.794;2023-07-16T06:02:00;53.95;46.13;70.50;;
47109;Laerm;32856;51.422;6.794;2023-07-16T06:04:27;55.82;47.72;72.57;;
47109;Laerm;32856;51.422;6.794;2023-07-16T06:06:57;60.57;48.96;74.94;;
47109;Laerm;32856;51.422;6.794;2023-07-16T06:09:24;60.62;48.54;76.28;;
47109;Laerm;32856;51.422;6.794;2023-07-16T06:11:52;60.00;47.96;74.82;;
47109;Laerm;32856;51.422;6.794;2023-07-16T06:14:19;54.56;47.77;71.71;;
47109;Laerm;32856;51.422;6.794;2023-07-16T06:16:46;60.16;47.72;74.97;;
47109;Laerm;32856;51.422;6.794;2023-07-16T06:19:14;56.89;49.16;71.69;;
47109;Laerm;32856;51.422;6.794;2023-07-16T06:21:41;60.01;48.99;75.19;;
47109;Laerm;32856;51.422;6.794;2023-07-16T06:24:10;60.07;48.57;77.99;;
47109;Laerm;32856;51.422;6.794;2023-07-16T06:26:41;56.43;48.95;72.89;;
47109;Laerm;32856;51.422;6.794;2023-07-16T06:29:08;57.51;48.57;74.28;;
47109;Laerm;32856;51.422;6.794;2023-07-16T06:31:35;56.80;49.10;68.48;;
47109;Laerm;32856;51.422;6.794;2023-07-16T06:34:03;58.86;48.87;76.09;;
47109;Laerm;32856;51.422;6.794;2023-07-16T06:36:30;60.21;49.87;75.07;;
47109;Laerm;32856;51.422;6.794;2023-07-16T06:38:57;59.06;49.74;74.71;;
47109;Laerm;32856;51.422;6.794;2023-07-16T06:41:27;59.28;49.96;72.43;;
47109;Laerm;32856;51.422;6.794;2023-07-16T06:43:56;58.05;48.12;73.40;;
47109;Laerm;32856;51.422;6.794;2023-07-16T06:46:23;56.37;48.20;70.70;;
47109;Laerm;32856;51.422;6.794;2023-07-16T06:48:51;55.35;50.09;71.33;;
47109;Laerm;32856;51.422;6.794;2023-07-16T06:51:18;58.11;48.62;74.13;;
47109;Laerm;32856;51.422;6.794;2023-07-16T06:53:47;60.88;49.41;75.79;;
47109;Laerm;32856;51.422;6.794;2023-07-16T06:56:14;58.46;50.14;72.11;;
47109;Laerm;32856;51.422;6.794;2023-07-16T06:58:43;60.54;49.08;73.82;;
47109;Laerm;32856;51.422;6.794;2023-07-16T07:01:11;59.45;51.44;76.65;;
47109;Laerm;32856;51.422;6.794;2023-07-16T07:03:38;58.25;50.64;72.35;;
47109;Laerm;32856;51.422;6.794;2023-07-16T07:06:06;60.47;50.75;74.20;;
47109;Laerm;32856;51.422;6.794;2023-07-16T07:08:33;62.28;52.95;76.70;;
47109;Laerm;32856;51.422;6.794;2023-07-16T07:11:00;60.45;50.57;75.76;;
47109;Laerm;32856;51.422;6.794;2023-07-16T07:13:28;62.31;50.00;77.49;;
47109;Laerm;32856;51.422;6.794;2023-07-16T07:15:57;61.48;50.24;75.20;;
47109;Laerm;32856;51.422;6.794;2023-07-16T07:18:24;61.37;52.59;73.45;;
47109;Laerm;32856;51.422;6.794;2023-07-16T07:20:52;60.97;52.14;74.18;;
47109;Laerm;32856;51.422;6.794;2023-07-16T07:23:19;58.78;51.34;71.98;;
47109;Laerm;32856;51.422;6.794;2023-07-16T07:25:48;61.76;50.17;74.77;;
47109;Laerm;32856;51.422;6.794;2023-07-16T07:28:15;57.97;49.88;73.30;;
47109;Laerm;32856;51.422;6.794;2023-07-16T07:30:43;59.19;47.10;72.16;;
47109;Laerm;32856;51.422;6.794;2023-07-16T07:33:12;60.43;51.16;73.49;;
47109;Laerm;32856;51.422;6.794;2023-07-16T07:35:40;61.74;51.35;74.91;;
47109;Laerm;32856;51.422;6.794;2023-07-16T07:38:07;62.99;51.30;75.07;;
47109;Laerm;32856;51.422;6.794;2023-07-16T07:40:34;60.99;50.12;74.87;;
47109;Laerm;32856;51.422;6.794;2023-07-16T07:43:02;60.25;49.28;75.41;;
47109;Laerm;32856;51.422;6.794;2023-07-16T07:45:29;61.24;50.55;74.90;;
47109;Laerm;32856;51.422;6.794;2023-07-16T07:47:56;63.15;51.42;73.96;;
47109;Laerm;32856;51.422;6.794;2023-07-16T07:50:25;61.51;50.50;73.25;;
47109;Laerm;32856;51.422;6.794;2023-07-16T07:52:53;63.09;49.98;81.68;;
47109;Laerm;32856;51.422;6.794;2023-07-16T07:55:20;63.83;50.03;77.29;;
47109;Laerm;32856;51.422;6.794;2023-07-16T07:57:47;57.19;50.18;70.40;;
47109;Laerm;32856;51.422;6.794;2023-07-16T08:00:15;61.99;51.88;77.65;;
47109;Laerm;32856;51.422;6.794;2023-07-16T08:02:42;61.85;50.13;76.47;;
47109;Laerm;32856;51.422;6.794;2023-07-16T08:05:10;61.65;51.08;73.65;;
47109;Laerm;32856;51.422;6.794;2023-07-16T08:07:39;62.61;50.64;75.42;;
47109;Laerm;32856;51.422;6.794;2023-07-16T08:10:06;60.78;50.18;74.94;;
47109;Laerm;32856;51.422;6.794;2023-07-16T08:12:34;61.12;51.32;74.46;;
47109;Laerm;32856;51.422;6.794;2023-07-16T08:15:01;62.65;50.98;74.45;;
47109;Laerm;32856;51.422;6.794;2023-07-16T08:17:29;59.31;50.29;77.85;;
47109;Laerm;32856;51.422;6.794;2023-07-16T08:19:57;58.54;50.30;82.73;;
47109;Laerm;32856;51.422;6.794;2023-07-16T08:22:25;67.00;51.62;85.53;;
47109;Laerm;32856;51.422;6.794;2023-07-16T08:24:54;60.56;50.57;75.59;;
47109;Laerm;32856;51.422;6.794;2023-07-16T08:27:21;59.47;50.20;75.50;;
47109;Laerm;32856;51.422;6.794;2023-07-16T08:29:48;61.33;51.33;73.96;;
47109;Laerm;32856;51.422;6.794;2023-07-16T08:32:16;59.87;51.95;74.34;;
47109;Laerm;32856;51.422;6.794;2023-07-16T08:34:43;61.85;49.11;74.44;;
47109;Laerm;32856;51.422;6.794;2023-07-16T08:37:10;62.71;51.28;78.78;;
47109;Laerm;32856;51.422;6.794;2023-07-16T08:39:38;66.68;50.36;83.44;;
47109;Laerm;32856;51.422;6.794;2023-07-16T08:42:08;59.28;50.03;70.98;;
47109;Laerm;32856;51.422;6.794;2023-07-16T08:44:36;63.87;50.07;77.91;;
47109;Laerm;32856;51.422;6.794;2023-07-16T08:47:04;60.58;50.20;76.42;;
47109;Laerm;32856;51.422;6.794;2023-07-16T08:49:32;63.81;50.29;76.25;;
47109;Laerm;32856;51.422;6.794;2023-07-16T08:52:01;63.07;49.56;75.52;;
47109;Laerm;32856;51.422;6.794;2023-07-16T08:54:29;65.79;48.91;85.40;;
47109;Laerm;32856;51.422;6.794;2023-07-16T08:56:56;66.80;49.60;80.00;;
47109;Laerm;32856;51.422;6.794;2023-07-16T08:59:25;62.92;49.32;75.75;;
47109;Laerm;32856;51.422;6.794;2023-07-16T09:01:53;63.06;50.48;77.27;;
47109;Laerm;32856;51.422;6.794;2023-07-16T09:04:20;63.29;51.72;79.16;;
47109;Laerm;32856;51.422;6.794;2023-07-16T09:06:48;65.47;50.05;78.77;;
47109;Laerm;32856;51.422;6.794;2023-07-16T09:09:19;63.57;51.01;76.42;;
47109;Laerm;32856;51.422;6.794;2023-07-16T09:11:47;64.14;50.09;77.38;;
47109;Laerm;32856;51.422;6.794;2023-07-16T09:14:16;62.81;51.07;77.33;;
47109;Laerm;32856;51.422;6.794;2023-07-16T09:16:48;61.85;48.54;75.89;;
47109;Laerm;32856;51.422;6.794;2023-07-16T09:19:16;63.15;51.67;74.63;;
47109;Laerm;32856;51.422;6.794;2023-07-16T09:21:48;61.38;50.58;72.77;;
47109;Laerm;32856;51.422;6.794;2023-07-16T09:24:15;63.91;50.11;76.93;;
47109;Laerm;32856;51.422;6.794;2023-07-16T09:26:48;63.11;49.50;75.05;;
47109;Laerm;32856;51.422;6.794;2023-07-16T09:29:16;64.52;54.00;73.61;;
47109;Laerm;32856;51.422;6.794;2023-07-16T09:31:55;63.67;50.16;74.62;;
47109;Laerm;32856;51.422;6.794;2023-07-16T09:34:23;63.47;50.38;75.71;;
47109;Laerm;32856;51.422;6.794;2023-07-16T09:36:51;62.91;51.02;72.13;;
47109;Laerm;32856;51.422;6.794;2023-07-16T09:39:18;61.77;51.26;72.75;;
47109;Laerm;32856;51.422;6.794;2023-07-16T09:41:46;65.47;52.73;79.43;;
47109;Laerm;32856;51.422;6.794;2023-07-16T09:44:14;62.73;51.95;74.36;;
47109;Laerm;32856;51.422;6.794;2023-07-16T09:46:43;59.33;49.65;69.79;;
47109;Laerm;32856;51.422;6.794;2023-07-16T09:49:12;65.03;49.70;77.45;;
47109;Laerm;32856;51.422;6.794;2023-07-16T09:51:39;65.18;49.41;77.95;;
47109;Laerm;32856;51.422;6.794;2023-07-16T09:54:06;70.75;51.55;90.91;;
47109;Laerm;32856;51.422;6.794;2023-07-16T09:56:35;61.79;50.09;76.53;;
47109;Laerm;32856;51.422;6.794;2023-07-16T09:59:05;65.69;50.81;84.92;;
47109;Laerm;32856;51.422;6.794;2023-07-16T10:01:33;62.85;52.01;80.88;;
47109;Laerm;32856;51.422;6.794;2023-07-16T10:04:09;63.50;50.51;79.69;;
47109;Laerm;32856;51.422;6.794;2023-07-16T10:06:38;61.97;48.49;77.28;;
47109;Laerm;32856;51.422;6.794;2023-07-16T10:09:15;63.89;49.56;74.27;;
47109;Laerm;32856;51.422;6.794;2023-07-16T10:12:06;63.78;50.83;76.45;;
47109;Laerm;32856;51.422;6.794;2023-07-16T10:14:39;62.78;49.23;77.32;;
47109;Laerm;32856;51.422;6.794;2023-07-16T10:17:06;61.60;49.15;77.40;;
47109;Laerm;32856;51.422;6.794;2023-07-16T10:19:45;61.56;48.73;74.42;;
47109;Laerm;32856;51.422;6.794;2023-07-16T10:22:14;61.72;51.86;72.67;;
47109;Laerm;32856;51.422;6.794;2023-07-16T10:24:41;61.34;50.55;73.45;;
47109;Laerm;32856;51.422;6.794;2023-07-16T10:27:11;65.85;50.41;81.65;;
47109;Laerm;32856;51.422;6.794;2023-07-16T10:29:40;62.65;51.59;73.34;;
47109;Laerm;32856;51.422;6.794;2023-07-16T10:32:08;61.82;50.12;74.17;;
47109;Laerm;32856;51.422;6.794;2023-07-16T10:34:35;62.30;49.21;75.72;;
47109;Laerm;32856;51.422;6.794;2023-07-16T10:37:03;60.45;49.46;71.53;;
47109;Laerm;32856;51.422;6.794;2023-07-16T10:39:34;63.86;50.45;75.35;;
47109;Laerm;32856;51.422;6.794;2023-07-16T10:42:04;63.06;50.86;75.47;;
47109;Laerm;32856;51.422;6.794;2023-07-16T10:44:32;63.11;50.47;80.25;;
47109;Laerm;32856;51.422;6.794;2023-07-16T10:47:00;64.31;48.55;78.65;;
47109;Laerm;32856;51.422;6.794;2023-07-16T10:49:28;61.08;47.93;74.47;;
47109;Laerm;32856;51.422;6.794;2023-07-16T10:51:57;65.30;48.61;78.08;;
47109;Laerm;32856;51.422;6.794;2023-07-16T10:54:24;63.99;49.30;74.91;;
47109;Laerm;32856;51.422;6.794;2023-07-16T10:56:53;63.78;49.66;76.58;;
47109;Laerm;32856;51.422;6.794;2023-07-16T10:59:21;65.33;49.94;81.33;;
47109;Laerm;32856;51.422;6.794;2023-07-16T11:01:48;63.57;49.80;75.07;;
47109;Laerm;32856;51.422;6.794;2023-07-16T11:04:17;63.48;50.60;82.13;;
47109;Laerm;32856;51.422;6.794;2023-07-16T11:06:44;64.92;52.31;74.46;;
47109;Laerm;32856;51.422;6.794;2023-07-16T11:09:12;63.35;48.81;73.66;;
47109;Laerm;32856;51.422;6.794;2023-07-16T11:11:39;64.14;49.58;76.09;;
47109;Laerm;32856;51.422;6.794;2023-07-16T11:14:09;65.55;48.66;83.96;;
47109;Laerm;32856;51.422;6.794;2023-07-16T11:16:36;64.76;52.61;75.20;;
47109;Laerm;32856;51.422;6.794;2023-07-16T11:19:04;63.27;50.70;74.50;;
47109;Laerm;32856;51.422;6.794;2023-07-16T11:21:33;60.67;49.84;72.01;;
47109;Laerm;32856;51.422;6.794;2023-07-16T11:24:07;62.30;47.91;74.27;;
47109;Laerm;32856;51.422;6.794;2023-07-16T11:26:35;63.50;45.77;75.58;;
47109;Laerm;32856;51.422;6.794;2023-07-16T11:29:13;63.04;50.34;80.08;;
47109;Laerm;32856;51.422;6.794;2023-07-16T11:31:41;64.86;49.57;76.89;;
47109;Laerm;32856;51.422;6.794;2023-07-16T11:34:12;62.17;48.20;75.95;;
47109;Laerm;32856;51.422;6.794;2023-07-16T11:36:39;61.63;48.36;75.03;;
47109;Laerm;32856;51.422;6.794;2023-07-16T11:39:07;65.13;50.15;82.55;;
47109;Laerm;32856;51.422;6.794;2023-07-16T11:41:34;62.22;49.46;74.05;;
47109;Laerm;32856;51.422;6.794;2023-07-16T11:44:02;62.44;49.67;74.20;;
47109;Laerm;32856;51.422;6.794;2023-07-16T11:46:32;62.40;48.16;77.77;;
47109;Laerm;32856;51.422;6.794;2023-07-16T11:49:00;63.63;48.83;75.12;;
47109;Laerm;32856;51.422;6.794;2023-07-16T11:51:27;63.56;49.66;74.26;;
47109;Laerm;32856;51.422;6.794;2023-07-16T11:53:55;64.02;48.20;75.65;;
47109;Laerm;32856;51.422;6.794;2023-07-16T11:56:23;63.27;51.17;74.74;;
47109;Laerm;32856;51.422;6.794;2023-07-16T11:58:50;63.67;49.16;76.81;;
47109;Laerm;32856;51.422;6.794;2023-07-16T12:01:18;64.23;51.26;74.37;;
47109;Laerm;32856;51.422;6.794;2023-07-16T12:03:47;63.20;49.64;73.01;;
47109;Laerm;32856;51.422;6.794;2023-07-16T12:06:14;62.57;49.97;76.29;;
47109;Laerm;32856;51.422;6.794;2023-07-16T12:08:42;63.29;49.14;75.44;;
47109;Laerm;32856;51.422;6.794;2023-07-16T12:11:09;62.16;50.28;73.08;;
47109;Laerm;32856;51.422;6.794;2023-07-16T12:13:36;59.07;48.22;73.76;;
47109;Laerm;32856;51.422;6.794;2023-07-16T12:16:04;59.30;47.50;70.99;;
47109;Laerm;32856;51.422;6.794;2023-07-16T12:18:32;63.24;49.16;74.13;;
47109;Laerm;32856;51.422;6.794;2023-07-16T12:21:01;61.99;49.24;75.84;;
47109;Laerm;32856;51.422;6.794;2023-07-16T12:23:29;61.78;48.71;74.35;;
47109;Laerm;32856;51.422;6.794;2023-07-16T12:25:57;64.09;52.00;73.96;;
47109;Laerm;32856;51.422;6.794;2023-07-16T12:28:24;63.44;51.29;77.71;;
47109;Laerm;32856;51.422;6.794;2023-07-16T12:30:52;62.65;50.15;75.09;;
47109;Laerm;32856;51.422;6.794;2023-07-16T12:33:19;62.82;48.15;74.25;;
47109;Laerm;32856;51.422;6.794;2023-07-16T12:35:47;61.32;47.08;73.58;;
47109;Laerm;32856;51.422;6.794;2023-07-16T12:38:15;63.32;47.86;74.40;;
47109;Laerm;32856;51.422;6.794;2023-07-16T12:40:43;63.37;49.52;75.28;;
47109;Laerm;32856;51.422;6.794;2023-07-16T12:43:10;63.77;50.90;73.47;;
47109;Laerm;32856;51.422;6.794;2023-07-16T12:45:38;63.34;49.14;74.96;;
47109;Laerm;32856;51.422;6.794;2023-07-16T12:48:05;66.61;52.27;90.01;;
47109;Laerm;32856;51.422;6.794;2023-07-16T12:50:33;62.99;49.82;74.25;;
47109;Laerm;32856;51.422;6.794;2023-07-16T12:53:00;65.67;48.51;82.59;;
47109;Laerm;32856;51.422;6.794;2023-07-16T12:55:29;63.93;48.92;73.49;;
47109;Laerm;32856;51.422;6.794;2023-07-16T12:57:59;64.13;48.12;77.17;;
47109;Laerm;32856;51.422;6.794;2023-07-16T13:00:26;63.54;50.85;73.48;;
47109;Laerm;32856;51.422;6.794;2023-07-16T13:02:54;65.01;50.80;76.17;;
47109;Laerm;32856;51.422;6.794;2023-07-16T13:05:22;62.60;47.91;73.76;;
47109;Laerm;32856;51.422;6.794;2023-07-16T13:07:50;64.12;48.64;76.23;;
47109;Laerm;32856;51.422;6.794;2023-07-16T13:10:18;63.42;49.70;74.52;;
47109;Laerm;32856;51.422;6.794;2023-07-16T13:12:50;62.57;49.88;76.73;;
47109;Laerm;32856;51.422;6.794;2023-07-16T13:15:18;62.94;49.19;76.63;;
47109;Laerm;32856;51.422;6.794;2023-07-16T13:17:46;61.36;47.76;74.21;;
47109;Laerm;32856;51.422;6.794;2023-07-16T13:20:14;58.98;45.89;73.57;;
47109;Laerm;32856;51.422;6.794;2023-07-16T13:22:42;64.11;46.22;75.68;;
47109;Laerm;32856;51.422;6.794;2023-07-16T13:25:10;62.19;45.91;77.28;;
47109;Laerm;32856;51.422;6.794;2023-07-16T13:27:37;61.94;48.76;73.21;;
47109;Laerm;32856;51.422;6.794;2023-07-16T13:30:06;60.73;46.52;75.64;;
47109;Laerm;32856;51.422;6.794;2023-07-16T13:32:34;63.42;48.58;73.88;;
47109;Laerm;32856;51.422;6.794;2023-07-16T13:35:01;62.92;45.30;77.98;;
47109;Laerm;32856;51.422;6.794;2023-07-16T13:37:29;63.44;47.52;77.90;;
47109;Laerm;32856;51.422;6.794;2023-07-16T13:39:56;62.10;46.07;77.11;;
47109;Laerm;32856;51.422;6.794;2023-07-16T13:42:24;62.23;45.39;73.50;;
47109;Laerm;32856;51.422;6.794;2023-07-16T13:44:51;61.96;46.66;74.83;;
47109;Laerm;32856;51.422;6.794;2023-07-16T13:47:20;61.14;45.33;74.61;;
47109;Laerm;32856;51.422;6.794;2023-07-16T13:49:48;62.22;47.18;76.22;;
47109;Laerm;32856;51.422;6.794;2023-07-16T13:52:15;64.03;50.47;75.36;;
47109;Laerm;32856;51.422;6.794;2023-07-16T13:54:42;63.22;47.95;78.54;;